Time;durP1;ratioP1;P1;durP2;ratioP2;P2;SDS_P1;SDS_P2;PMS_P1;PMS_P2;Temp;Humidity;BMP_temperature;BMP_pressure;BME280_temperature;BME280_humidity;BME280_pressure;Samples;Min_cycle;Max_cycle;Signal;HPM_P1;HPM_P2
2023/05/28 00:00:56;;;;;;;16.13;4.68;;;13.70;99.90;;;;;;4939053;29;20052;-70
2023/05/28 00:03:23;;;;;;;11.20;4.50;;;13.70;99.90;;;;;;4940232;29;20130;-70
2023/05/28 00:05:49;;;;;;;12.10;5.78;;;13.60;99.90;;;;;;4920643;29;20135;-70
2023/05/28 00:08:15;;;;;;;11.93;4.80;;;13.60;99.90;;;;;;4939378;29;20122;-70
2023/05/28 00:10:43;;;;;;;9.85;4.78;;;13.60;99.90;;;;;;4938319;29;20056;-70
2023/05/28 00:13:08;;;;;;;9.00;4.75;;;13.50;99.90;;;;;;4939929;29;20480;-70
2023/05/28 00:15:35;;;;;;;12.13;4.60;;;13.50;99.90;;;;;;4904513;29;20047;-70
2023/05/28 00:18:01;;;;;;;12.40;4.45;;;13.50;99.90;;;;;;4936223;29;20051;-70
2023/05/28 00:20:27;;;;;;;12.93;4.97;;;13.50;99.90;;;;;;4921514;29;20071;-71
2023/05/28 00:22:52;;;;;;;9.90;4.68;;;13.50;99.90;;;;;;4925180;29;20051;-70
2023/05/28 00:25:19;;;;;;;10.18;4.95;;;13.40;99.90;;;;;;4925990;29;20047;-71
2023/05/28 00:27:45;;;;;;;7.45;4.40;;;13.40;99.90;;;;;;4936153;29;20071;-70
2023/05/28 00:30:12;;;;;;;12.82;4.75;;;13.30;99.90;;;;;;4920639;29;20086;-70
2023/05/28 00:32:38;;;;;;;11.00;5.75;;;13.30;99.90;;;;;;4937813;29;20078;-70
2023/05/28 00:35:04;;;;;;;12.05;5.45;;;13.30;99.90;;;;;;4928961;29;20480;-70
2023/05/28 00:37:30;;;;;;;10.95;5.38;;;13.30;99.90;;;;;;4936114;29;20043;-71
2023/05/28 00:39:55;;;;;;;7.00;4.50;;;13.20;99.90;;;;;;4920761;29;20082;-70
2023/05/28 00:42:21;;;;;;;9.68;5.00;;;13.20;99.90;;;;;;4928234;29;20059;-70
2023/05/28 00:44:47;;;;;;;10.00;4.43;;;13.20;99.90;;;;;;4935750;29;20477;-70
2023/05/28 00:47:13;;;;;;;10.82;4.93;;;13.20;99.90;;;;;;4940262;29;20055;-70
2023/05/28 00:49:39;;;;;;;8.27;4.18;;;13.20;99.90;;;;;;4921614;29;20044;-70
2023/05/28 00:52:05;;;;;;;14.25;4.63;;;13.20;99.90;;;;;;4911808;29;20066;-70
2023/05/28 00:54:31;;;;;;;10.90;4.03;;;13.20;99.90;;;;;;4920385;29;20058;-70
2023/05/28 00:56:57;;;;;;;9.80;4.10;;;13.10;99.90;;;;;;4919082;29;20047;-70
2023/05/28 00:59:24;;;;;;;9.40;3.95;;;13.10;99.90;;;;;;4936660;29;20089;-70
2023/05/28 01:01:50;;;;;;;9.95;4.55;;;13.10;99.90;;;;;;4943716;29;20043;-71
2023/05/28 01:04:16;;;;;;;12.32;4.60;;;13.10;99.90;;;;;;4904611;29;20074;-70
2023/05/28 01:06:47;;;;;;;8.68;4.05;;;13.00;99.90;;;;;;4901698;29;20074;-70
2023/05/28 01:09:13;;;;;;;10.07;4.43;;;12.80;99.90;;;;;;4922082;29;20707;-70
2023/05/28 01:11:40;;;;;;;8.38;4.22;;;12.70;99.90;;;;;;4910435;29;20051;-71
2023/05/28 01:14:07;;;;;;;8.10;4.47;;;12.60;99.90;;;;;;4927063;29;20055;-70
2023/05/28 01:16:33;;;;;;;9.52;4.45;;;12.60;99.90;;;;;;4937171;29;20467;-70
2023/05/28 01:18:58;;;;;;;10.02;4.25;;;12.60;99.90;;;;;;4919540;29;20433;-71
2023/05/28 01:21:25;;;;;;;9.35;4.78;;;12.60;99.90;;;;;;4905390;29;20082;-70
2023/05/28 01:23:51;;;;;;;10.25;4.40;;;12.60;99.90;;;;;;4922425;29;20142;-70
2023/05/28 01:26:17;;;;;;;12.23;5.18;;;12.50;99.90;;;;;;4921537;29;20056;-70
2023/05/28 01:28:47;;;;;;;11.20;4.47;;;12.50;99.90;;;;;;4914233;29;20664;-70
2023/05/28 01:31:14;;;;;;;9.98;4.63;;;12.40;99.90;;;;;;4933903;29;20051;-70
2023/05/28 01:33:41;;;;;;;11.13;4.93;;;12.40;99.90;;;;;;4922957;29;20082;-70
2023/05/28 01:36:10;;;;;;;11.43;4.30;;;12.30;99.90;;;;;;4934634;29;20055;-70
2023/05/28 01:38:36;;;;;;;8.02;4.13;;;12.30;99.90;;;;;;4935909;29;20397;-70
2023/05/28 01:41:02;;;;;;;9.20;4.20;;;12.30;99.90;;;;;;4936068;29;20136;-70
2023/05/28 01:43:27;;;;;;;6.97;3.60;;;12.40;99.90;;;;;;4939529;29;20380;-70
2023/05/28 01:45:54;;;;;;;8.68;4.82;;;12.30;99.90;;;;;;4920515;29;20043;-70
2023/05/28 01:48:20;;;;;;;9.38;4.88;;;12.30;99.90;;;;;;4918667;29;20075;-70
2023/05/28 01:50:45;;;;;;;13.13;5.32;;;12.20;99.90;;;;;;4919402;29;20083;-70
2023/05/28 01:53:12;;;;;;;10.70;4.10;;;12.20;99.90;;;;;;4940161;29;20507;-70
2023/05/28 01:55:37;;;;;;;8.48;4.32;;;12.20;99.90;;;;;;4941768;29;20051;-70
2023/05/28 01:58:03;;;;;;;8.95;4.13;;;12.10;99.90;;;;;;4937503;29;20106;-70
2023/05/28 02:00:30;;;;;;;8.10;4.15;;;12.10;99.90;;;;;;4935149;29;20051;-70
2023/05/28 02:02:55;;;;;;;11.23;4.25;;;12.10;99.90;;;;;;4940948;29;20051;-70
2023/05/28 02:05:21;;;;;;;8.52;4.13;;;12.10;99.90;;;;;;4918575;29;20102;-70
2023/05/28 02:07:47;;;;;;;8.05;4.45;;;12.00;99.90;;;;;;4934525;29;20413;-70
2023/05/28 02:10:13;;;;;;;10.48;4.03;;;12.00;99.90;;;;;;4919999;29;20051;-70
2023/05/28 02:12:39;;;;;;;10.65;4.75;;;11.90;99.90;;;;;;4936971;29;20126;-70
2023/05/28 02:15:06;;;;;;;7.10;4.43;;;11.90;99.90;;;;;;4933081;29;20126;-70
2023/05/28 02:17:32;;;;;;;9.05;4.47;;;11.90;99.90;;;;;;4922244;29;20051;-70
2023/05/28 02:19:58;;;;;;;9.85;4.38;;;11.70;99.90;;;;;;4935594;29;20421;-70
2023/05/28 02:22:24;;;;;;;11.73;4.63;;;11.70;99.90;;;;;;4935408;29;20415;-70
2023/05/28 02:24:50;;;;;;;8.63;3.95;;;11.50;99.90;;;;;;4932030;29;20055;-70
2023/05/28 02:27:16;;;;;;;9.95;3.92;;;11.50;99.90;;;;;;4906707;29;20365;-70
2023/05/28 02:29:43;;;;;;;9.60;4.57;;;11.40;99.90;;;;;;4913348;29;20047;-70
2023/05/28 02:32:08;;;;;;;8.18;4.15;;;11.40;99.90;;;;;;4922837;29;20052;-70
2023/05/28 02:34:35;;;;;;;11.75;4.50;;;11.30;99.90;;;;;;4902421;29;20052;-70
2023/05/28 02:37:02;;;;;;;8.35;4.43;;;11.20;99.90;;;;;;4918216;29;20051;-70
2023/05/28 02:39:28;;;;;;;9.05;4.43;;;11.20;99.90;;;;;;4917645;29;20436;-70
2023/05/28 02:41:53;;;;;;;8.32;4.03;;;11.20;99.90;;;;;;4934649;29;20047;-70
2023/05/28 02:44:19;;;;;;;8.75;4.60;;;11.20;99.90;;;;;;4922855;29;20047;-70
2023/05/28 02:46:45;;;;;;;8.75;4.40;;;11.20;99.90;;;;;;4939577;29;20114;-70
2023/05/28 02:49:11;;;;;;;9.27;4.38;;;11.30;99.90;;;;;;4935279;29;20067;-71
2023/05/28 02:51:36;;;;;;;10.07;4.20;;;11.20;99.90;;;;;;4922194;29;20544;-70
2023/05/28 02:54:02;;;;;;;9.98;4.40;;;11.30;99.90;;;;;;4933782;29;20043;-71
2023/05/28 02:56:28;;;;;;;13.48;4.80;;;11.30;99.90;;;;;;4917481;29;20050;-70
2023/05/28 02:58:54;;;;;;;10.48;4.35;;;11.20;99.90;;;;;;4919366;29;20043;-70
2023/05/28 03:01:19;;;;;;;8.77;4.28;;;11.20;99.90;;;;;;4934156;29;20051;-70
2023/05/28 03:03:45;;;;;;;10.73;4.25;;;11.20;99.90;;;;;;4920620;29;20479;-70
2023/05/28 03:06:11;;;;;;;9.02;4.38;;;11.30;99.90;;;;;;4917858;29;20044;-70
2023/05/28 03:08:37;;;;;;;8.73;4.32;;;11.30;99.90;;;;;;4918989;29;20044;-70
2023/05/28 03:11:02;;;;;;;11.38;4.30;;;11.30;99.90;;;;;;4938945;29;20056;-71
2023/05/28 03:13:28;;;;;;;9.15;4.25;;;11.30;99.90;;;;;;4937271;29;20118;-70
2023/05/28 03:15:54;;;;;;;9.57;4.93;;;11.20;99.90;;;;;;4938877;29;20778;-70
2023/05/28 03:18:19;;;;;;;8.27;4.07;;;11.20;99.90;;;;;;4916623;29;20473;-70
2023/05/28 03:20:45;;;;;;;10.90;4.75;;;11.10;99.90;;;;;;4936263;29;20048;-71
2023/05/28 03:23:11;;;;;;;9.13;4.30;;;11.10;99.90;;;;;;4917700;29;20055;-70
2023/05/28 03:25:37;;;;;;;7.88;4.25;;;11.10;99.90;;;;;;4937843;29;20345;-70
2023/05/28 03:28:03;;;;;;;12.65;4.40;;;11.00;99.90;;;;;;4920090;29;20043;-70
2023/05/28 03:30:28;;;;;;;7.22;4.03;;;11.00;99.90;;;;;;4933162;29;20043;-70
2023/05/28 03:32:54;;;;;;;8.35;3.85;;;11.00;99.90;;;;;;4936162;29;20039;-70
2023/05/28 03:35:20;;;;;;;8.88;3.97;;;11.00;99.90;;;;;;4935844;29;20043;-70
2023/05/28 03:37:46;;;;;;;9.15;4.28;;;10.90;99.90;;;;;;4939615;29;20039;-70
2023/05/28 03:40:11;;;;;;;8.07;4.15;;;10.90;99.90;;;;;;4943302;29;20195;-70
2023/05/28 03:42:38;;;;;;;9.02;4.50;;;10.90;99.90;;;;;;4922521;29;20378;-70
2023/05/28 03:45:05;;;;;;;9.02;4.40;;;10.90;99.90;;;;;;4942853;29;20468;-70
2023/05/28 03:47:32;;;;;;;8.77;4.43;;;10.90;99.90;;;;;;4891707;29;20047;-70
2023/05/28 03:49:58;;;;;;;9.35;4.15;;;10.80;99.90;;;;;;4889816;29;20055;-70
2023/05/28 03:52:25;;;;;;;8.85;3.67;;;10.90;99.90;;;;;;4927216;29;20043;-70
2023/05/28 03:54:50;;;;;;;8.68;3.97;;;10.80;99.90;;;;;;4907286;29;20384;-70
2023/05/28 03:57:16;;;;;;;10.48;4.20;;;10.90;99.90;;;;;;4910902;29;20056;-70
2023/05/28 03:59:42;;;;;;;7.95;4.10;;;10.90;99.90;;;;;;4920665;29;20516;-70
2023/05/28 04:02:08;;;;;;;7.53;4.10;;;10.90;99.90;;;;;;4921195;29;20051;-70
2023/05/28 04:04:33;;;;;;;10.48;4.97;;;10.90;99.90;;;;;;4938647;29;20354;-70
2023/05/28 04:07:00;;;;;;;8.32;4.07;;;10.90;99.90;;;;;;4928538;29;20043;-70
2023/05/28 04:09:27;;;;;;;8.95;4.65;;;10.90;99.90;;;;;;4936717;29;20161;-70
2023/05/28 04:11:52;;;;;;;9.00;5.00;;;10.90;99.90;;;;;;4917431;29;20119;-70
2023/05/28 04:14:18;;;;;;;10.75;4.25;;;10.90;99.90;;;;;;4904965;29;20574;-71
2023/05/28 04:16:44;;;;;;;9.93;4.43;;;11.00;99.90;;;;;;4923911;29;20126;-70
2023/05/28 04:19:10;;;;;;;12.10;4.50;;;11.00;99.90;;;;;;4937192;29;20051;-71
2023/05/28 04:21:36;;;;;;;10.48;4.43;;;11.00;99.90;;;;;;4941015;29;20061;-70
2023/05/28 04:24:03;;;;;;;7.00;4.10;;;11.00;99.90;;;;;;4918595;29;20790;-70
2023/05/28 04:26:29;;;;;;;7.95;4.03;;;11.00;99.90;;;;;;4939523;29;20047;-71
2023/05/28 04:28:55;;;;;;;8.23;3.92;;;11.10;99.90;;;;;;4937028;29;20055;-70
2023/05/28 04:31:21;;;;;;;7.40;3.53;;;11.10;99.90;;;;;;4914909;29;20489;-70
2023/05/28 04:33:47;;;;;;;8.93;4.40;;;11.10;99.90;;;;;;4939309;29;20464;-71
2023/05/28 04:36:15;;;;;;;8.45;4.18;;;11.20;99.90;;;;;;4918405;29;20115;-71
2023/05/28 04:38:41;;;;;;;8.10;3.95;;;11.20;99.90;;;;;;4922745;29;20066;-70
2023/05/28 04:41:07;;;;;;;8.52;3.67;;;11.20;99.90;;;;;;4920233;29;20376;-71
2023/05/28 04:43:33;;;;;;;9.52;4.35;;;11.30;99.90;;;;;;4922663;29;20659;-71
2023/05/28 04:45:59;;;;;;;9.15;4.10;;;11.30;99.90;;;;;;4931366;29;20051;-70
2023/05/28 04:48:25;;;;;;;6.30;3.40;;;11.30;99.90;;;;;;4923798;29;20394;-70
2023/05/28 04:50:51;;;;;;;10.48;4.60;;;11.40;99.90;;;;;;4935157;29;20130;-70
2023/05/28 04:53:17;;;;;;;9.63;4.45;;;11.40;99.90;;;;;;4888812;29;20134;-70
2023/05/28 04:55:44;;;;;;;6.63;3.90;;;11.40;99.90;;;;;;4940876;29;20134;-70
2023/05/28 04:58:10;;;;;;;6.97;3.92;;;11.50;99.90;;;;;;4938903;29;20050;-71
2023/05/28 05:00:35;;;;;;;9.55;4.55;;;11.40;99.90;;;;;;4934620;29;20047;-70
2023/05/28 05:03:01;;;;;;;6.75;3.88;;;11.50;99.90;;;;;;4919983;29;20528;-71
2023/05/28 05:05:27;;;;;;;9.73;4.10;;;11.50;99.90;;;;;;4920081;29;20479;-70
2023/05/28 05:07:53;;;;;;;8.90;4.15;;;11.50;99.90;;;;;;4926350;29;20046;-71
2023/05/28 05:10:20;;;;;;;7.30;4.63;;;11.50;99.90;;;;;;4925585;29;20047;-71
2023/05/28 05:12:46;;;;;;;11.10;4.07;;;11.60;99.90;;;;;;4919645;29;20047;-70
2023/05/28 05:15:12;;;;;;;11.93;4.25;;;11.60;99.90;;;;;;4913216;29;20078;-71
2023/05/28 05:17:38;;;;;;;11.27;4.18;;;11.60;99.90;;;;;;4942159;29;20079;-71
2023/05/28 05:20:04;;;;;;;9.68;4.07;;;11.60;99.90;;;;;;4935578;29;20056;-70
2023/05/28 05:22:31;;;;;;;10.43;4.20;;;11.60;99.90;;;;;;4938069;29;20130;-70
2023/05/28 05:24:56;;;;;;;9.35;4.43;;;11.70;99.90;;;;;;4901641;29;20063;-70
2023/05/28 05:27:22;;;;;;;8.15;4.15;;;11.70;99.90;;;;;;4939923;29;20516;-70
2023/05/28 05:29:48;;;;;;;8.98;4.72;;;11.80;99.90;;;;;;4916051;29;20044;-70
2023/05/28 05:32:14;;;;;;;10.25;4.38;;;11.90;99.90;;;;;;4940299;29;20487;-71
2023/05/28 05:34:40;;;;;;;10.45;4.60;;;11.90;99.90;;;;;;4935859;29;20051;-70
2023/05/28 05:37:06;;;;;;;10.23;4.40;;;11.90;99.90;;;;;;4937581;29;20070;-70
2023/05/28 05:39:32;;;;;;;12.45;4.50;;;11.90;99.90;;;;;;4935279;29;20388;-71
2023/05/28 05:41:57;;;;;;;7.68;4.18;;;11.90;99.90;;;;;;4939756;29;20484;-71
2023/05/28 05:44:23;;;;;;;11.65;4.63;;;12.00;99.90;;;;;;4918796;29;20052;-70
2023/05/28 05:46:49;;;;;;;11.10;4.72;;;12.10;99.90;;;;;;4919891;29;20182;-70
2023/05/28 05:49:15;;;;;;;11.52;4.70;;;12.10;99.90;;;;;;4941285;29;20530;-71
2023/05/28 05:51:40;;;;;;;9.13;4.68;;;12.20;99.90;;;;;;4940307;29;20416;-70
2023/05/28 05:54:06;;;;;;;8.82;4.60;;;12.20;99.90;;;;;;4919008;29;20150;-70
2023/05/28 05:56:32;;;;;;;9.98;4.28;;;12.20;99.90;;;;;;4903284;29;20075;-70
2023/05/28 05:58:58;;;;;;;9.63;4.50;;;12.20;99.90;;;;;;4923771;29;20129;-70
2023/05/28 06:01:24;;;;;;;10.35;3.88;;;12.30;99.90;;;;;;4918948;29;20110;-71
2023/05/28 06:03:50;;;;;;;8.90;4.47;;;12.40;99.90;;;;;;4938441;29;20062;-70
2023/05/28 06:06:16;;;;;;;9.48;4.30;;;12.40;99.90;;;;;;4918846;29;20382;-71
2023/05/28 06:08:41;;;;;;;7.65;4.35;;;12.50;99.90;;;;;;4935954;29;20119;-70
2023/05/28 06:11:07;;;;;;;10.48;4.43;;;12.50;99.90;;;;;;4917156;29;20106;-70
2023/05/28 06:13:35;;;;;;;12.13;4.40;;;12.60;99.90;;;;;;4938568;29;20057;-71
2023/05/28 06:16:02;;;;;;;9.70;4.22;;;12.70;99.90;;;;;;4919723;29;20114;-70
2023/05/28 06:18:29;;;;;;;11.70;4.87;;;12.70;99.90;;;;;;4936819;29;20043;-71
2023/05/28 06:20:55;;;;;;;10.27;4.10;;;12.80;99.90;;;;;;4919764;29;20747;-71
2023/05/28 06:23:21;;;;;;;8.38;3.83;;;12.80;99.90;;;;;;4923025;29;20048;-71
2023/05/28 06:25:47;;;;;;;8.30;3.78;;;12.90;99.90;;;;;;4897540;29;20059;-71
2023/05/28 06:28:13;;;;;;;9.18;3.80;;;13.00;99.90;;;;;;4918381;29;20044;-71
2023/05/28 06:30:40;;;;;;;11.05;3.70;;;13.00;99.90;;;;;;4899635;29;20040;-71
2023/05/28 06:33:06;;;;;;;8.90;3.88;;;13.10;99.90;;;;;;4936154;29;20052;-71
2023/05/28 06:35:32;;;;;;;7.72;4.07;;;13.10;99.90;;;;;;4940111;29;20059;-71
2023/05/28 06:37:58;;;;;;;10.70;4.05;;;13.20;99.90;;;;;;4940102;29;20047;-71
2023/05/28 06:40:23;;;;;;;9.95;4.70;;;13.30;99.90;;;;;;4937246;29;20639;-71
2023/05/28 06:42:49;;;;;;;8.60;3.70;;;13.40;99.90;;;;;;4938488;29;20043;-70
2023/05/28 06:45:15;;;;;;;8.68;4.10;;;13.40;99.90;;;;;;4917711;29;20059;-71
2023/05/28 06:47:41;;;;;;;9.27;3.60;;;13.50;99.90;;;;;;4923660;29;20054;-70
2023/05/28 06:50:07;;;;;;;9.20;3.80;;;13.50;99.90;;;;;;4938685;29;20126;-70
2023/05/28 06:52:34;;;;;;;9.25;3.60;;;13.60;99.90;;;;;;4918058;29;20126;-71
2023/05/28 06:54:59;;;;;;;7.38;3.58;;;13.70;99.90;;;;;;4933501;29;20108;-71
2023/05/28 06:57:25;;;;;;;6.85;3.88;;;13.80;99.90;;;;;;4934879;29;20126;-71
2023/05/28 06:59:51;;;;;;;7.55;3.58;;;13.80;99.90;;;;;;4922056;29;20123;-71
2023/05/28 07:02:17;;;;;;;8.82;3.63;;;13.90;99.90;;;;;;4900324;29;20461;-71
2023/05/28 07:04:42;;;;;;;7.68;3.40;;;14.00;99.90;;;;;;4920768;29;20056;-71
2023/05/28 07:07:08;;;;;;;9.93;3.83;;;14.10;99.90;;;;;;4934064;29;20130;-70
2023/05/28 07:09:34;;;;;;;8.60;3.47;;;14.20;99.90;;;;;;4919326;29;20048;-71
2023/05/28 07:12:00;;;;;;;6.18;2.63;;;14.20;99.90;;;;;;4937954;29;20461;-71
2023/05/28 07:14:26;;;;;;;8.10;3.50;;;14.30;99.90;;;;;;4943753;29;20122;-71
2023/05/28 07:16:52;;;;;;;7.82;3.28;;;14.40;99.90;;;;;;4921494;29;20099;-71
2023/05/28 07:19:17;;;;;;;7.90;2.97;;;14.60;99.90;;;;;;4919654;29;20051;-71
2023/05/28 07:21:46;;;;;;;6.90;2.70;;;14.60;99.90;;;;;;4942747;29;20153;-71
2023/05/28 07:24:11;;;;;;;6.22;2.97;;;14.70;99.90;;;;;;4939101;29;20052;-71
2023/05/28 07:26:37;;;;;;;4.97;2.80;;;14.70;99.90;;;;;;4920481;29;20115;-71
2023/05/28 07:29:03;;;;;;;5.35;2.63;;;14.80;99.90;;;;;;4939528;29;20043;-71
2023/05/28 07:31:31;;;;;;;6.15;2.75;;;14.80;99.90;;;;;;4943377;29;20078;-71
2023/05/28 07:33:56;;;;;;;6.80;2.45;;;14.90;98.90;;;;;;4922572;29;20075;-71
2023/05/28 07:36:23;;;;;;;6.60;2.72;;;15.00;99.60;;;;;;4921191;29;20491;-71
2023/05/28 07:38:49;;;;;;;7.60;2.75;;;15.10;98.80;;;;;;4943081;29;20061;-72
2023/05/28 07:41:15;;;;;;;6.35;2.65;;;15.20;98.70;;;;;;4921636;29;20159;-72
2023/05/28 07:43:41;;;;;;;5.53;2.70;;;15.30;99.40;;;;;;4942792;29;20055;-73
2023/05/28 07:46:06;;;;;;;4.85;2.40;;;15.40;98.80;;;;;;4921566;29;20071;-70
2023/05/28 07:48:32;;;;;;;7.65;2.38;;;15.50;96.30;;;;;;4942515;29;20933;-70
2023/05/28 07:50:58;;;;;;;4.40;2.00;;;15.60;97.10;;;;;;4939808;29;20130;-70
2023/05/28 07:53:24;;;;;;;3.03;1.88;;;15.80;93.80;;;;;;4945109;29;20047;-74
2023/05/28 07:55:50;;;;;;;4.53;2.05;;;15.90;93.80;;;;;;4911360;29;20504;-73
2023/05/28 07:58:16;;;;;;;5.60;2.35;;;15.90;93.00;;;;;;4920970;29;20059;-73
2023/05/28 08:00:42;;;;;;;4.38;2.05;;;16.00;94.70;;;;;;4920994;29;20047;-73
2023/05/28 08:03:11;;;;;;;4.65;2.35;;;16.10;94.90;;;;;;4925682;29;20204;-73
2023/05/28 08:05:37;;;;;;;4.78;2.38;;;16.30;94.70;;;;;;4937999;29;20048;-71
2023/05/28 08:08:03;;;;;;;4.45;2.30;;;16.30;95.40;;;;;;4941825;29;20098;-72
2023/05/28 08:10:29;;;;;;;4.78;2.33;;;16.50;95.60;;;;;;4924492;29;20048;-71
2023/05/28 08:12:55;;;;;;;4.78;2.22;;;16.60;95.60;;;;;;4921127;29;20158;-71
2023/05/28 08:15:21;;;;;;;5.25;2.35;;;16.60;95.70;;;;;;4938595;29;20696;-71
2023/05/28 08:17:48;;;;;;;5.10;2.50;;;16.70;95.80;;;;;;4921850;29;20055;-71
2023/05/28 08:20:14;;;;;;;6.68;2.70;;;16.80;95.90;;;;;;4940361;29;20119;-71
2023/05/28 08:22:40;;;;;;;5.50;2.60;;;16.90;95.40;;;;;;4925026;29;20047;-73
2023/05/28 08:25:06;;;;;;;9.40;2.50;;;17.00;93.90;;;;;;4935113;29;20905;-73
2023/05/28 08:27:34;;;;;;;6.57;2.10;;;17.10;93.80;;;;;;4910711;29;20060;-71
2023/05/28 08:29:59;;;;;;;5.90;2.45;;;17.10;93.60;;;;;;4905649;29;20100;-74
2023/05/28 08:32:25;;;;;;;4.22;2.20;;;17.20;94.60;;;;;;4917628;29;20043;-75
2023/05/28 08:34:51;;;;;;;4.50;2.63;;;17.30;94.50;;;;;;4915019;29;20456;-75
2023/05/28 08:37:17;;;;;;;7.13;2.97;;;17.40;93.60;;;;;;4897309;29;20053;-75
2023/05/28 08:39:43;;;;;;;5.60;2.13;;;17.50;93.10;;;;;;4895236;29;20479;-75
2023/05/28 08:42:09;;;;;;;6.50;2.08;;;17.60;92.30;;;;;;4885809;29;20142;-76
2023/05/28 08:44:35;;;;;;;6.43;2.47;;;17.70;92.10;;;;;;4900767;29;20213;-76
2023/05/28 08:47:01;;;;;;;4.38;2.15;;;17.80;92.30;;;;;;4899231;29;20041;-77
2023/05/28 08:49:32;;;;;;;4.88;1.98;;;17.80;91.70;;;;;;4914501;29;20107;-76
2023/05/28 08:52:00;;;;;;;4.10;2.10;;;18.00;90.60;;;;;;4914847;29;20143;-76
2023/05/28 08:54:25;;;;;;;4.93;2.00;;;18.00;89.90;;;;;;4898807;29;20500;-77
2023/05/28 08:56:52;;;;;;;5.75;2.00;;;18.00;90.20;;;;;;4881751;29;20052;-75
2023/05/28 08:59:18;;;;;;;6.78;1.92;;;18.10;91.10;;;;;;4898844;29;20508;-74
2023/05/28 09:01:44;;;;;;;5.28;2.10;;;18.20;91.00;;;;;;4917915;29;20056;-75
2023/05/28 09:04:10;;;;;;;5.68;2.20;;;18.30;90.20;;;;;;4912060;29;20078;-75
2023/05/28 09:06:38;;;;;;;6.05;2.08;;;18.60;86.10;;;;;;4914298;29;20052;-75
2023/05/28 09:09:07;;;;;;;5.07;1.90;;;18.60;90.70;;;;;;4898050;29;20135;-75
2023/05/28 09:11:33;;;;;;;5.07;2.30;;;18.60;88.60;;;;;;4918006;29;20339;-75
2023/05/28 09:13:59;;;;;;;4.00;1.83;;;18.70;86.60;;;;;;4904009;29;20059;-75
2023/05/28 09:16:25;;;;;;;5.20;2.10;;;18.80;80.90;;;;;;4898953;29;20052;-75
2023/05/28 09:18:52;;;;;;;5.80;2.08;;;18.80;85.10;;;;;;4914729;29;20048;-75
2023/05/28 09:21:21;;;;;;;5.00;2.10;;;18.80;85.20;;;;;;4915605;29;20094;-75
2023/05/28 09:23:50;;;;;;;4.82;2.03;;;18.90;86.70;;;;;;4898130;29;20057;-75
2023/05/28 09:26:19;;;;;;;5.50;2.58;;;18.90;88.80;;;;;;4915887;29;20664;-75
2023/05/28 09:28:45;;;;;;;;;;;19.00;86.30;;;;;;4898344;29;20140;-75
2023/05/28 09:31:10;;;;;;;9.18;2.20;;;19.00;83.40;;;;;;4905074;29;20002;-75
2023/05/28 09:33:45;;;;;;;4.38;1.67;;;19.10;79.80;;;;;;4921488;29;20048;-75
2023/05/28 09:36:11;;;;;;;6.22;2.00;;;19.00;86.70;;;;;;4916943;29;20047;-74
2023/05/28 09:38:41;;;;;;;7.30;1.85;;;19.10;90.00;;;;;;4899708;29;20052;-74
2023/05/28 09:41:23;;;;;;;5.20;2.30;;;19.20;90.50;;;;;;4897629;29;20044;-72
2023/05/28 09:44:00;;;;;;;5.97;2.47;;;19.30;89.50;;;;;;4911911;29;20078;-72
2023/05/28 09:46:37;;;;;;;4.25;2.03;;;19.50;83.90;;;;;;4879268;29;20045;-75
2023/05/28 09:49:03;;;;;;;4.90;1.90;;;19.50;89.00;;;;;;4915711;29;20048;-72
2023/05/28 09:51:31;;;;;;;5.05;1.90;;;19.60;84.40;;;;;;4915319;29;20466;-72
2023/05/28 09:53:58;;;;;;;8.25;2.17;;;19.70;84.40;;;;;;4912851;29;20071;-72
2023/05/28 09:56:31;;;;;;;6.35;2.50;;;19.70;87.30;;;;;;4916385;29;20052;-72
2023/05/28 09:59:01;;;;;;;4.72;2.20;;;19.80;79.20;;;;;;4911563;29;20057;-72
2023/05/28 10:01:48;;;;;;;5.60;1.90;;;19.90;80.90;;;;;;4905901;29;20809;-72
2023/05/28 10:04:15;;;;;;;7.60;2.40;;;20.10;82.80;;;;;;4892132;29;20059;-72
2023/05/28 10:06:40;;;;;;;5.10;2.40;;;20.20;82.00;;;;;;4918241;29;20494;-72
2023/05/28 10:09:06;;;;;;;5.53;2.30;;;20.30;78.00;;;;;;4915966;29;20044;-72
2023/05/28 10:11:39;;;;;;;9.07;2.20;;;20.30;80.30;;;;;;4916213;29;20032;-75
2023/05/28 10:14:05;;;;;;;5.97;1.98;;;20.30;82.00;;;;;;4912508;29;20049;-74
2023/05/28 10:16:32;;;;;;;5.22;2.28;;;20.40;80.40;;;;;;4914024;29;20472;-74
2023/05/28 10:18:58;;;;;;;4.95;2.20;;;20.60;77.10;;;;;;4895315;29;20114;-74
2023/05/28 10:21:24;;;;;;;5.22;2.15;;;20.60;74.70;;;;;;4915974;29;20481;-74
2023/05/28 10:23:50;;;;;;;5.22;2.20;;;20.60;80.90;;;;;;4910021;29;20044;-74
2023/05/28 10:26:15;;;;;;;5.88;2.20;;;20.70;78.40;;;;;;4903010;29;20078;-74
2023/05/28 10:28:42;;;;;;;5.75;2.33;;;20.70;81.00;;;;;;4938272;29;20054;-75
2023/05/28 10:31:09;;;;;;;5.45;2.33;;;20.80;76.60;;;;;;4900802;29;20107;-75
2023/05/28 10:33:42;;;;;;;5.68;2.10;;;20.90;77.90;;;;;;4931696;29;20646;-75
2023/05/28 10:36:12;;;;;;;5.03;2.15;;;20.90;77.40;;;;;;4922549;29;20071;-76
2023/05/28 10:38:45;;;;;;;6.72;1.90;;;21.10;75.20;;;;;;4931071;29;20055;-75
2023/05/28 10:41:11;;;;;;;6.90;2.20;;;21.10;78.90;;;;;;4935387;29;20052;-75
2023/05/28 10:43:39;;;;;;;3.92;2.28;;;21.30;75.50;;;;;;4915035;29;20067;-75
2023/05/28 10:46:34;;;;;;;6.43;2.60;;;21.40;75.50;;;;;;4931505;29;20094;-74
2023/05/28 10:49:20;;;;;;;6.95;2.35;;;21.50;70.20;;;;;;4916087;29;20040;-76
2023/05/28 10:51:56;;;;;;;6.07;2.40;;;21.40;74.40;;;;;;4911435;29;20079;-75
2023/05/28 10:54:23;;;;;;;5.50;2.20;;;21.50;75.00;;;;;;4920087;29;20063;-75
2023/05/28 10:57:19;;;;;;;5.10;2.15;;;21.50;76.40;;;;;;4900253;29;20052;-75
2023/05/28 11:00:14;;;;;;;6.95;2.22;;;21.60;75.20;;;;;;4915681;29;20048;-75
2023/05/28 11:02:43;;;;;;;7.50;2.47;;;21.80;76.60;;;;;;4895370;29;20054;-75
2023/05/28 11:05:09;;;;;;;6.13;2.50;;;21.80;74.20;;;;;;4914921;29;20067;-76
2023/05/28 11:07:36;;;;;;;7.22;2.85;;;21.80;75.10;;;;;;4900600;29;20051;-75
2023/05/28 11:10:10;;;;;;;4.72;2.13;;;21.70;68.90;;;;;;4888761;29;20125;-75
2023/05/28 11:12:38;;;;;;;6.97;2.40;;;21.60;75.80;;;;;;4915656;29;20107;-75
2023/05/28 11:15:08;;;;;;;4.88;2.38;;;21.70;76.00;;;;;;4929534;29;20114;-75
2023/05/28 11:17:38;;;;;;;6.25;2.17;;;21.70;77.10;;;;;;4918809;29;20087;-75
2023/05/28 11:20:05;;;;;;;5.00;2.00;;;21.80;72.60;;;;;;4935680;29;20055;-76
2023/05/28 11:22:37;;;;;;;5.55;2.20;;;22.00;70.80;;;;;;4931076;29;20914;-76
2023/05/28 11:25:07;;;;;;;6.07;2.10;;;22.10;70.40;;;;;;4917739;29;20052;-76
2023/05/28 11:27:35;;;;;;;7.75;2.83;;;22.20;69.50;;;;;;4933300;29;20048;-76
2023/05/28 11:30:11;;;;;;;5.25;2.10;;;22.30;73.50;;;;;;4914423;29;20064;-75
2023/05/28 11:32:37;;;;;;;8.88;2.90;;;22.40;67.90;;;;;;4932344;29;20044;-75
2023/05/28 11:35:05;;;;;;;4.97;2.25;;;22.50;71.20;;;;;;4931900;29;20052;-74
2023/05/28 11:37:37;;;;;;;4.38;2.10;;;22.50;71.70;;;;;;4932685;29;20370;-75
2023/05/28 11:40:10;;;;;;;6.90;2.72;;;22.60;67.10;;;;;;4920832;29;20044;-76
2023/05/28 11:42:40;;;;;;;6.13;2.40;;;22.50;68.00;;;;;;4918425;29;20048;-76
2023/05/28 11:45:07;;;;;;;5.82;2.60;;;22.50;68.20;;;;;;4915863;29;20075;-75
2023/05/28 11:47:36;;;;;;;5.78;2.20;;;22.50;70.40;;;;;;4938124;29;20071;-77
2023/05/28 11:50:15;;;;;;;6.80;2.38;;;22.50;72.40;;;;;;4935095;29;20048;-75
2023/05/28 11:52:45;;;;;;;5.68;2.58;;;22.40;69.00;;;;;;4914088;29;20058;-75
2023/05/28 11:55:11;;;;;;;7.25;2.20;;;22.30;70.10;;;;;;4919888;29;20047;-74
2023/05/28 11:57:50;;;;;;;7.00;2.72;;;22.20;71.60;;;;;;4917910;29;20444;-74
2023/05/28 12:00:16;;;;;;;5.55;2.63;;;22.20;71.60;;;;;;4915324;29;20048;-75
2023/05/28 12:02:51;;;;;;;5.13;2.20;;;22.10;71.30;;;;;;4918857;29;20055;-76
2023/05/28 12:05:17;;;;;;;5.95;2.40;;;22.10;72.00;;;;;;4918130;29;20064;-75
2023/05/28 12:07:46;;;;;;;5.55;2.50;;;22.10;73.50;;;;;;4920100;29;20036;-75
2023/05/28 12:10:13;;;;;;;6.15;2.90;;;22.10;73.10;;;;;;4908187;29;20044;-75
2023/05/28 12:12:42;;;;;;;6.43;2.63;;;22.20;74.80;;;;;;4934721;29;20067;-75
2023/05/28 12:15:09;;;;;;;7.10;2.45;;;22.30;71.00;;;;;;4920733;29;20135;-75
2023/05/28 12:17:40;;;;;;;6.47;2.75;;;22.40;70.30;;;;;;4921076;29;20639;-75
2023/05/28 12:20:16;;;;;;;5.72;2.45;;;22.60;71.80;;;;;;4886977;29;20156;-75
2023/05/28 12:22:42;;;;;;;5.15;2.22;;;22.80;70.50;;;;;;4918656;29;20044;-76
2023/05/28 12:25:08;;;;;;;9.50;2.67;;;22.90;70.50;;;;;;4933432;29;20048;-74
2023/05/28 12:27:35;;;;;;;5.78;2.35;;;23.00;68.20;;;;;;4899421;29;20063;-76
2023/05/28 12:30:02;;;;;;;8.95;2.65;;;22.90;64.40;;;;;;4899802;29;20489;-77
2023/05/28 12:32:28;;;;;;;7.18;2.50;;;22.70;66.50;;;;;;4910244;29;20127;-77
2023/05/28 12:34:56;;;;;;;5.18;2.70;;;22.80;68.60;;;;;;4914508;29;20131;-76
2023/05/28 12:37:23;;;;;;;7.43;2.78;;;23.10;71.50;;;;;;4883735;29;20188;-76
2023/05/28 12:39:50;;;;;;;5.50;2.70;;;23.40;68.10;;;;;;4915127;29;20127;-76
2023/05/28 12:42:15;;;;;;;8.35;2.95;;;23.60;68.50;;;;;;4916619;29;20060;-77
2023/05/28 12:44:41;;;;;;;8.20;3.05;;;23.70;65.90;;;;;;4915100;29;20052;-75